createdAt,value
2022-11-24T00:03:37.263Z,91.51
2022-11-24T00:08:38.259Z,91.55
2022-11-24T00:13:37.103Z,91.76
2022-11-24T00:18:37.003Z,91.66
2022-11-24T00:23:36.972Z,91.70
2022-11-24T00:28:36.937Z,91.29
2022-11-24T00:33:36.858Z,91.08
2022-11-24T00:38:36.785Z,91.60
2022-11-24T00:43:36.729Z,91.29
2022-11-24T00:48:36.797Z,92.16
2022-11-24T00:53:36.703Z,91.74
2022-11-24T00:58:36.641Z,91.85
2022-11-24T01:03:36.660Z,92.36
2022-11-24T01:08:36.461Z,92.46
2022-11-24T01:13:36.416Z,92.05
2022-11-24T01:18:36.363Z,91.95
2022-11-24T01:23:36.316Z,91.13
2022-11-24T01:28:37.067Z,91.38
2022-11-24T01:33:36.214Z,91.68
2022-11-24T01:38:36.163Z,92.30
2022-11-24T01:43:36.100Z,92.30
2022-11-24T01:48:36.131Z,92.50
2022-11-24T01:53:36.008Z,92.30
2022-11-24T01:58:35.972Z,91.99
2022-11-24T02:03:35.855Z,92.40
2022-11-24T02:08:35.857Z,92.67
2022-11-24T02:13:35.776Z,92.57
2022-11-24T02:18:35.690Z,91.91
2022-11-24T02:23:35.854Z,91.74
2022-11-24T02:28:35.639Z,91.74
2022-11-24T02:33:35.598Z,91.29
2022-11-24T02:38:35.647Z,92.52
2022-11-24T02:43:35.457Z,90.98
2022-11-24T02:48:35.380Z,91.49
2022-11-24T02:53:35.361Z,91.19
2022-11-24T02:58:35.255Z,90.88
2022-11-24T03:03:35.206Z,90.94
2022-11-24T03:08:35.196Z,90.12
2022-11-24T03:13:35.130Z,90.01
2022-11-24T03:18:35.109Z,89.81
2022-11-24T03:23:34.964Z,90.42
2022-11-24T03:28:34.938Z,89.60
2022-11-24T03:33:34.969Z,89.60
2022-11-24T03:38:34.810Z,89.19
2022-11-24T03:43:39.109Z,89.70
2022-11-24T03:48:35.760Z,89.44
2022-11-24T03:53:34.773Z,90.16
2022-11-24T03:58:34.692Z,90.16
2022-11-24T04:03:34.700Z,91.02
2022-11-24T04:08:34.629Z,91.19
2022-11-24T04:13:34.458Z,90.36
2022-11-24T04:18:34.481Z,90.32
2022-11-24T04:23:34.373Z,90.32
2022-11-24T04:28:34.329Z,90.08
2022-11-24T04:33:34.269Z,89.42
2022-11-24T04:39:20.050Z,89.52
2022-11-24T04:43:40.304Z,90.14
2022-11-24T04:48:38.536Z,90.44
2022-11-24T04:53:34.075Z,89.83
2022-11-24T04:58:34.057Z,88.86
2022-11-24T05:03:34.008Z,88.86
2022-11-24T05:08:33.876Z,88.92
2022-11-24T05:13:33.879Z,88.66
2022-11-24T05:18:33.775Z,88.51
2022-11-24T05:23:33.722Z,88.56
2022-11-24T05:28:33.686Z,88.66
2022-11-24T05:33:33.775Z,89.07
2022-11-24T05:38:33.656Z,88.76
2022-11-24T05:43:33.494Z,88.66
2022-11-24T05:48:33.500Z,88.66
2022-11-24T05:53:42.271Z,88.10
2022-11-24T05:58:33.267Z,87.94
2022-11-24T06:03:33.269Z,88.24
2022-11-24T06:08:33.172Z,87.49
2022-11-24T06:13:33.152Z,87.08
2022-11-24T06:18:33.094Z,87.38
2022-11-24T06:23:33.009Z,87.70
2022-11-24T06:28:33.006Z,87.63
2022-11-24T06:33:32.908Z,88.59
2022-11-24T06:38:32.925Z,88.08
2022-11-24T06:43:32.880Z,88.18
2022-11-24T06:48:32.791Z,88.59
2022-11-24T06:53:32.690Z,87.53
2022-11-24T06:58:32.609Z,87.88
2022-11-24T07:03:32.663Z,88.43
2022-11-24T07:08:32.593Z,88.39
2022-11-24T07:13:33.536Z,88.43
2022-11-24T07:18:32.437Z,88.23
2022-11-24T07:23:32.395Z,87.61
2022-11-24T07:28:32.330Z,87.61
2022-11-24T07:33:32.359Z,86.75
2022-11-24T07:38:32.336Z,86.50
2022-11-24T07:43:33.333Z,86.50
2022-11-24T07:48:32.211Z,86.19
2022-11-24T07:53:31.999Z,84.41
2022-11-24T07:58:32.890Z,83.83
2022-11-24T08:03:31.974Z,83.28
2022-11-24T08:08:31.841Z,82.63
2022-11-24T08:13:31.835Z,83.07
2022-11-24T08:18:31.761Z,83.18
2022-11-24T08:23:31.712Z,84.31
2022-11-24T08:28:31.808Z,84.06
2022-11-24T08:33:31.635Z,83.69
2022-11-24T08:38:31.560Z,83.14
2022-11-24T08:43:31.463Z,83.07
2022-11-24T08:48:31.437Z,83.28
2022-11-24T08:53:31.439Z,83.65
2022-11-24T08:58:31.365Z,85.09
2022-11-24T09:03:31.325Z,86.15
2022-11-24T09:08:31.148Z,86.87
2022-11-24T09:13:31.135Z,86.42
2022-11-24T09:18:31.081Z,86.42
2022-11-24T09:23:31.043Z,85.85
2022-11-24T09:28:30.935Z,85.80
2022-11-24T09:33:30.912Z,85.50
2022-11-24T09:38:30.855Z,85.77
2022-11-24T09:43:30.798Z,85.30
2022-11-24T09:48:30.823Z,85.31
2022-11-24T09:53:30.693Z,84.91
2022-11-24T09:58:30.641Z,84.50
2022-11-24T10:03:30.582Z,83.58
2022-11-24T10:08:32.578Z,83.58
2022-11-24T10:13:30.456Z,84.15
2022-11-24T10:18:33.261Z,83.50
2022-11-24T10:23:33.558Z,83.13
2022-11-24T10:28:31.357Z,82.17
2022-11-24T10:33:31.022Z,82.34
2022-11-24T10:38:30.245Z,82.34
2022-11-24T10:43:30.445Z,81.01
2022-11-24T10:48:30.389Z,81.01
2022-11-24T10:53:30.525Z,80.90
2022-11-24T10:58:34.413Z,81.93
2022-11-24T11:03:31.243Z,81.21
2022-11-24T11:08:32.976Z,80.46
2022-11-24T11:13:29.819Z,80.32
2022-11-24T11:18:29.822Z,80.28
2022-11-24T11:23:29.688Z,80.18
2022-11-24T11:28:29.645Z,78.34
2022-11-24T11:38:30.526Z,79.05
2022-11-24T11:43:29.456Z,79.12
2022-11-24T11:48:32.398Z,78.61
2022-11-24T11:54:40.743Z,78.47
2022-11-24T11:59:40.846Z,78.67
2022-11-24T12:04:40.614Z,77.34
2022-11-24T12:09:40.551Z,77.96
2022-11-24T12:14:40.574Z,77.08
2022-11-24T12:19:40.452Z,76.73
2022-11-24T12:24:40.448Z,76.73
2022-11-24T12:29:40.360Z,78.98
2022-11-24T12:34:40.275Z,78.98
2022-11-24T12:39:40.264Z,78.41
2022-11-24T12:44:40.169Z,78.95
2022-11-24T12:49:40.123Z,77.93
2022-11-24T12:54:40.079Z,77.48
2022-11-24T12:59:40.009Z,78.41
2022-11-24T13:04:39.971Z,76.26
2022-11-24T13:09:39.921Z,76.77
2022-11-24T13:14:39.952Z,76.87
2022-11-24T13:19:39.873Z,76.81
2022-11-24T13:24:39.894Z,76.64
2022-11-24T13:29:39.804Z,76.43
2022-11-24T13:34:39.752Z,76.53
2022-11-24T13:39:43.643Z,76.03
2022-11-24T13:44:40.640Z,76.12
2022-11-24T13:49:40.562Z,76.53
2022-11-24T13:54:39.464Z,77.25
2022-11-24T13:59:39.371Z,77.56
2022-11-24T14:04:39.283Z,78.07
2022-11-24T14:09:39.273Z,78.78
2022-11-24T14:14:39.313Z,78.48
2022-11-24T14:19:39.173Z,78.78
2022-11-24T14:24:41.549Z,79.13
2022-11-24T14:29:39.069Z,79.02
2022-11-24T14:34:40.396Z,79.68
2022-11-24T14:39:38.956Z,79.47
2022-11-24T14:44:38.889Z,79.57
2022-11-24T14:49:38.840Z,79.68
2022-11-24T14:54:38.784Z,80.02
2022-11-24T14:59:38.752Z,80.02
2022-11-24T15:05:01.472Z,80.53
2022-11-24T15:09:40.784Z,80.88
2022-11-24T15:14:38.694Z,80.98
2022-11-24T15:19:38.525Z,81.52
2022-11-24T15:24:38.433Z,82.08
2022-11-24T15:29:38.440Z,82.69
2022-11-24T15:34:38.398Z,84.00
2022-11-24T15:39:38.287Z,84.86
2022-11-24T15:44:38.291Z,85.78
2022-11-24T15:49:38.175Z,85.93
2022-11-24T15:54:38.104Z,85.93
2022-11-24T15:59:38.056Z,87.10
2022-11-24T16:04:38.089Z,87.20
2022-11-24T16:09:37.991Z,88.06
2022-11-24T16:14:38.169Z,87.55
2022-11-24T16:19:41.814Z,88.31
2022-11-24T16:24:37.734Z,88.82
2022-11-24T16:29:38.644Z,88.86
2022-11-24T16:34:37.710Z,89.17
2022-11-24T16:39:37.663Z,89.17
2022-11-24T16:44:37.653Z,89.48
2022-11-24T16:49:37.494Z,89.52
2022-11-24T16:54:37.663Z,90.03
2022-11-24T16:59:37.549Z,89.97
2022-11-24T17:04:37.495Z,90.18
2022-11-24T17:09:40.583Z,90.90
2022-11-24T17:14:37.591Z,90.86
2022-11-24T17:19:37.131Z,89.11
2022-11-24T17:24:37.266Z,89.01
2022-11-24T17:29:37.107Z,87.79
2022-11-24T17:34:37.241Z,86.11
2022-11-24T17:39:36.940Z,85.49
2022-11-24T17:44:37.273Z,84.84
2022-11-24T17:49:36.846Z,83.46
2022-11-24T17:54:46.721Z,82.19
2022-11-24T17:59:36.702Z,82.09
2022-11-24T18:04:36.965Z,82.19
2022-11-24T18:09:36.557Z,81.71
2022-11-24T18:14:36.888Z,82.64
2022-11-24T18:19:36.442Z,82.13
2022-11-24T18:24:36.848Z,81.82
2022-11-24T18:29:36.341Z,81.82
2022-11-24T18:34:36.534Z,82.78
2022-11-24T18:39:36.273Z,82.17
2022-11-24T18:44:36.460Z,81.96
2022-11-24T18:49:36.133Z,81.41
2022-11-24T18:54:36.486Z,82.06
2022-11-24T18:59:36.023Z,82.37
2022-11-24T19:04:36.438Z,82.31
2022-11-24T19:09:35.927Z,82.86
2022-11-24T19:14:36.119Z,83.03
2022-11-24T19:19:35.830Z,83.37
2022-11-24T19:24:36.137Z,83.17
2022-11-24T19:29:40.299Z,82.76
2022-11-24T19:34:36.982Z,83.51
2022-11-24T19:39:35.568Z,82.86
2022-11-24T19:44:35.764Z,83.20
2022-11-24T19:49:35.485Z,83.76
2022-11-24T19:54:35.645Z,84.17
2022-11-24T19:59:36.376Z,83.97
2022-11-24T20:04:35.414Z,83.31
2022-11-24T20:09:35.262Z,82.65
2022-11-24T20:14:35.457Z,82.55
2022-11-24T20:19:35.157Z,82.79
2022-11-24T20:24:35.230Z,83.11
2022-11-24T20:29:35.042Z,83.62
2022-11-24T20:34:35.032Z,83.41
2022-11-24T20:39:34.903Z,82.69
2022-11-24T20:44:35.110Z,82.79
2022-11-24T20:49:34.828Z,83.45
2022-11-24T20:54:35.035Z,83.55
2022-11-24T20:59:34.690Z,83.55
2022-11-24T21:04:34.833Z,84.21
2022-11-24T21:09:34.602Z,84.00
2022-11-24T21:14:35.488Z,85.07
2022-11-24T21:19:34.480Z,85.17
2022-11-24T21:24:34.732Z,85.52
2022-11-24T21:29:34.323Z,85.59
2022-11-24T21:34:34.649Z,85.89
2022-11-24T21:39:35.323Z,85.28
2022-11-24T21:44:34.542Z,85.96
2022-11-24T21:49:34.134Z,85.34
2022-11-24T21:54:34.439Z,85.14
2022-11-24T21:59:34.025Z,85.86
2022-11-24T22:04:34.359Z,85.86
2022-11-24T22:09:33.965Z,85.34
2022-11-24T22:14:38.924Z,84.99
2022-11-24T22:19:34.875Z,85.06
2022-11-24T22:24:33.764Z,84.20
2022-11-24T22:29:33.710Z,83.75
2022-11-24T22:34:34.038Z,82.99
2022-11-24T22:39:33.747Z,82.17
2022-11-24T22:44:33.818Z,82.99
2022-11-24T22:49:33.451Z,83.19
2022-11-24T22:54:33.762Z,82.37
2022-11-24T22:59:33.385Z,82.99
2022-11-24T23:04:33.715Z,82.89
2022-11-24T23:09:33.247Z,83.29
2022-11-24T23:14:33.381Z,83.40
2022-11-24T23:19:33.135Z,82.54
2022-11-24T23:24:33.341Z,82.54
2022-11-24T23:29:33.049Z,82.64
2022-11-24T23:34:33.145Z,82.64
2022-11-24T23:39:33.010Z,83.56
2022-11-24T23:44:32.990Z,83.77
2022-11-24T23:49:32.803Z,83.77
2022-11-24T23:56:07.075Z,83.36
